createdAt,value
2023-01-10T00:01:24.862Z,60.94
2023-01-10T00:04:10.426Z,60.34
2023-01-10T00:06:44.559Z,60.26
2023-01-10T00:09:36.145Z,59.88
2023-01-10T00:12:36.714Z,59.68
2023-01-10T00:15:30.679Z,59.51
2023-01-10T00:18:18.703Z,58.35
2023-01-10T00:21:44.062Z,58.52
2023-01-10T00:24:39.208Z,61.02
2023-01-10T00:27:42.214Z,66.09
2023-01-10T00:30:23.116Z,66.00
2023-01-10T00:33:01.413Z,64.32
2023-01-10T00:35:40.139Z,63.07
2023-01-10T00:38:11.277Z,63.13
2023-01-10T00:40:47.237Z,62.67
2023-01-10T00:43:49.236Z,62.18
2023-01-10T00:46:27.935Z,62.34
2023-01-10T00:49:15.369Z,62.45
2023-01-10T00:52:10.150Z,61.94
2023-01-10T00:54:44.497Z,61.40
2023-01-10T00:57:29.421Z,61.20
2023-01-10T01:00:07.756Z,61.40
2023-01-10T01:02:52.208Z,61.25
2023-01-10T01:05:44.744Z,60.86
2023-01-10T01:08:19.044Z,60.69
2023-01-10T01:10:47.555Z,60.86
2023-01-10T01:13:45.314Z,60.93
2023-01-10T01:16:17.444Z,60.94
2023-01-10T01:18:48.789Z,60.85
2023-01-10T01:21:30.110Z,61.09
2023-01-10T01:24:00.615Z,61.19
2023-01-10T01:26:31.816Z,61.06
2023-01-10T01:29:00.454Z,61.13
2023-01-10T01:31:38.762Z,61.13
2023-01-10T01:34:22.808Z,61.17
2023-01-10T01:36:58.658Z,61.21
2023-01-10T01:39:41.636Z,61.28
2023-01-10T01:42:30.534Z,61.26
2023-01-10T01:45:14.072Z,61.20
2023-01-10T01:48:15.797Z,61.17
2023-01-10T01:50:59.560Z,61.43
2023-01-10T01:53:52.042Z,61.36
2023-01-10T01:56:31.438Z,61.47
2023-01-10T01:59:29.444Z,61.43
2023-01-10T02:02:12.181Z,61.73
2023-01-10T02:05:06.238Z,61.76
2023-01-10T02:07:44.088Z,61.56
2023-01-10T02:10:55.078Z,61.66
2023-01-10T02:13:28.479Z,62.03
2023-01-10T02:16:00.661Z,62.04
2023-01-10T02:18:32.104Z,61.92
2023-01-10T02:21:14.637Z,61.61
2023-01-10T02:24:35.613Z,61.63
2023-01-10T02:27:37.679Z,61.74
2023-01-10T02:31:00.323Z,61.39
2023-01-10T02:33:45.481Z,61.09
2023-01-10T02:36:42.899Z,60.88
2023-01-10T02:40:15.990Z,60.46
2023-01-10T02:43:19.052Z,60.28
2023-01-10T02:46:16.325Z,60.02
2023-01-10T02:48:53.996Z,59.93
2023-01-10T02:51:35.694Z,59.98
2023-01-10T02:54:27.819Z,59.93
2023-01-10T02:57:26.810Z,60.08
2023-01-10T03:01:18.626Z,60.15
2023-01-10T03:05:07.653Z,60.21
2023-01-10T03:08:33.333Z,60.14
2023-01-10T03:11:39.812Z,60.34
2023-01-10T03:14:20.730Z,60.68
2023-01-10T03:17:19.771Z,61.17
2023-01-10T03:19:51.491Z,61.19
2023-01-10T03:23:05.779Z,61.61
2023-01-10T03:25:56.927Z,61.62
2023-01-10T03:28:37.463Z,61.71
2023-01-10T03:31:19.368Z,61.75
2023-01-10T03:33:56.516Z,61.66
2023-01-10T03:37:33.757Z,61.76
2023-01-10T03:40:28.284Z,61.92
2023-01-10T03:43:52.917Z,62.24
2023-01-10T03:47:17.299Z,61.87
2023-01-10T03:50:20.188Z,62.67
2023-01-10T03:52:59.975Z,62.94
2023-01-10T03:55:35.272Z,62.88
2023-01-10T03:58:08.310Z,62.52
2023-01-10T04:00:42.066Z,62.91
2023-01-10T04:03:23.343Z,62.79
2023-01-10T04:06:18.119Z,63.12
2023-01-10T04:09:02.830Z,63.24
2023-01-10T04:11:56.125Z,63.14
2023-01-10T04:14:33.346Z,63.35
2023-01-10T04:17:23.338Z,63.37
2023-01-10T04:20:06.473Z,63.42
2023-01-10T04:22:38.263Z,63.41
2023-01-10T04:25:18.460Z,63.48
2023-01-10T04:27:56.284Z,63.30
2023-01-10T04:30:52.505Z,63.18
2023-01-10T04:33:50.158Z,63.21
2023-01-10T04:36:30.050Z,63.08
2023-01-10T04:39:16.671Z,63.42
2023-01-10T04:41:55.284Z,63.30
2023-01-10T04:44:26.580Z,63.00
2023-01-10T04:46:55.156Z,62.70
2023-01-10T04:49:25.990Z,62.76
2023-01-10T04:51:59.489Z,62.74
2023-01-10T04:54:30.941Z,62.61
2023-01-10T04:57:19.589Z,62.48
2023-01-10T04:59:53.497Z,62.44
2023-01-10T05:02:35.071Z,62.34
2023-01-10T05:05:03.469Z,62.44
2023-01-10T05:07:36.552Z,62.51
2023-01-10T05:10:12.762Z,62.48
2023-01-10T05:13:03.480Z,62.61
2023-01-10T05:15:44.694Z,62.46
2023-01-10T05:18:16.243Z,62.28
2023-01-10T05:20:44.520Z,62.07
2023-01-10T05:23:15.253Z,62.03
2023-01-10T05:25:46.858Z,61.91
2023-01-10T05:28:17.453Z,62.17
2023-01-10T05:30:54.514Z,62.20
2023-01-10T05:33:25.065Z,62.29
2023-01-10T05:35:57.004Z,62.37
2023-01-10T05:38:25.382Z,62.50
2023-01-10T05:40:59.021Z,62.42
2023-01-10T05:43:32.478Z,62.12
2023-01-10T05:46:06.047Z,62.12
2023-01-10T05:48:43.058Z,61.94
2023-01-10T05:51:18.735Z,61.87
2023-01-10T05:53:50.329Z,61.82
2023-01-10T05:56:27.033Z,61.66
2023-01-10T05:59:06.624Z,61.30
2023-01-10T06:01:43.760Z,60.99
2023-01-10T06:04:12.543Z,60.70
2023-01-10T06:06:46.564Z,60.39
2023-01-10T06:09:15.204Z,59.99
2023-01-10T06:11:48.866Z,59.74
2023-01-10T06:14:22.847Z,59.49
2023-01-10T06:16:56.988Z,58.60
2023-01-10T06:19:30.376Z,58.64
2023-01-10T06:22:04.567Z,60.41
2023-01-10T06:24:50.573Z,61.80
2023-01-10T06:27:35.834Z,65.49
2023-01-10T06:30:25.923Z,67.39
2023-01-10T06:33:00.912Z,64.95
2023-01-10T06:35:37.874Z,63.57
2023-01-10T06:38:11.735Z,62.58
2023-01-10T06:40:40.391Z,61.97
2023-01-10T06:43:24.542Z,61.77
2023-01-10T06:46:00.440Z,61.61
2023-01-10T06:48:43.788Z,61.31
2023-01-10T06:51:20.092Z,60.88
2023-01-10T06:53:48.774Z,60.46
2023-01-10T06:56:29.576Z,60.23
2023-01-10T06:59:08.477Z,60.00
2023-01-10T07:01:42.466Z,59.71
2023-01-10T07:04:15.952Z,59.00
2023-01-10T07:06:52.671Z,58.51
2023-01-10T07:09:29.751Z,60.11
2023-01-10T07:11:58.645Z,61.87
2023-01-10T07:14:29.274Z,65.49
2023-01-10T07:17:00.528Z,67.82
2023-01-10T07:19:35.242Z,66.54
2023-01-10T07:22:18.164Z,65.29
2023-01-10T07:24:54.634Z,63.75
2023-01-10T07:27:43.382Z,63.21
2023-01-10T07:30:26.720Z,62.77
2023-01-10T07:33:38.817Z,62.46
2023-01-10T07:36:15.601Z,62.11
2023-01-10T07:38:44.376Z,61.77
2023-01-10T07:41:12.849Z,61.79
2023-01-10T07:43:47.447Z,61.63
2023-01-10T07:46:23.252Z,61.27
2023-01-10T07:49:14.196Z,60.93
2023-01-10T07:51:53.362Z,60.69
2023-01-10T07:54:26.972Z,60.08
2023-01-10T07:56:57.699Z,59.95
2023-01-10T08:00:00.280Z,59.92
2023-01-10T08:02:31.715Z,60.04
2023-01-10T08:05:13.112Z,59.83
2023-01-10T08:07:44.714Z,59.54
2023-01-10T08:10:35.939Z,58.13
2023-01-10T08:13:52.872Z,59.47
2023-01-10T08:16:23.378Z,61.16
2023-01-10T08:19:08.095Z,63.48
2023-01-10T08:21:47.164Z,66.95
2023-01-10T08:24:59.972Z,66.03
2023-01-10T08:27:45.206Z,64.26
2023-01-10T08:30:50.324Z,63.53
2023-01-10T08:33:58.323Z,62.81
2023-01-10T08:36:42.300Z,61.70
2023-01-10T08:39:48.767Z,61.22
2023-01-10T08:42:28.717Z,61.00
2023-01-10T08:45:23.097Z,60.73
2023-01-10T08:48:28.240Z,60.18
2023-01-10T08:51:09.482Z,59.76
2023-01-10T08:54:03.494Z,59.37
2023-01-10T08:56:52.663Z,58.41
2023-01-10T08:59:38.501Z,60.13
2023-01-10T09:02:29.614Z,62.09
2023-01-10T09:05:28.526Z,66.35
2023-01-10T09:08:09.197Z,65.79
2023-01-10T09:10:48.463Z,64.08
2023-01-10T09:13:37.281Z,62.95
2023-01-10T09:16:17.026Z,61.98
2023-01-10T09:19:18.443Z,61.36
2023-01-10T09:22:04.425Z,60.99
2023-01-10T09:24:37.679Z,60.73
2023-01-10T09:27:11.692Z,60.35
2023-01-10T09:29:48.120Z,59.98
2023-01-10T09:32:20.018Z,59.52
2023-01-10T09:34:48.720Z,58.73
2023-01-10T09:37:19.944Z,58.12
2023-01-10T09:39:54.068Z,59.35
2023-01-10T09:42:40.051Z,61.88
2023-01-10T09:45:24.859Z,66.16
2023-01-10T09:48:25.942Z,67.24
2023-01-10T09:51:23.960Z,65.26
2023-01-10T09:54:11.325Z,63.70
2023-01-10T09:56:57.653Z,62.91
2023-01-10T09:59:55.211Z,62.18
2023-01-10T10:02:52.819Z,62.09
2023-01-10T10:05:28.481Z,62.03
2023-01-10T10:08:19.429Z,61.93
2023-01-10T10:11:23.610Z,61.90
2023-01-10T10:14:53.717Z,61.45
2023-01-10T10:18:17.166Z,61.00
2023-01-10T10:21:27.360Z,60.52
2023-01-10T10:24:24.856Z,60.09
2023-01-10T10:27:40.413Z,60.11
2023-01-10T10:30:54.489Z,60.38
2023-01-10T10:33:48.861Z,60.01
2023-01-10T10:36:38.249Z,59.69
2023-01-10T10:39:19.700Z,59.77
2023-01-10T10:41:58.200Z,59.67
2023-01-10T10:45:15.163Z,59.69
2023-01-10T10:48:34.330Z,59.69
2023-01-10T10:51:13.228Z,59.35
2023-01-10T10:54:09.689Z,58.08
2023-01-10T10:56:56.431Z,59.50
2023-01-10T10:59:40.153Z,61.43
2023-01-10T11:02:25.340Z,64.48
2023-01-10T11:05:21.083Z,66.64
2023-01-10T11:07:54.726Z,64.78
2023-01-10T11:10:41.839Z,63.43
2023-01-10T11:13:48.949Z,62.47
2023-01-10T11:16:49.396Z,61.67
2023-01-10T11:19:25.074Z,60.96
2023-01-10T11:22:03.825Z,60.60
2023-01-10T11:25:13.371Z,60.43
2023-01-10T11:28:12.766Z,60.23
2023-01-10T11:30:50.206Z,60.18
2023-01-10T11:33:40.223Z,60.13
2023-01-10T11:37:16.749Z,60.10
2023-01-10T11:40:37.947Z,59.62
2023-01-10T11:44:00.124Z,57.80
2023-01-10T11:46:34.085Z,61.40
2023-01-10T11:50:07.077Z,64.60
2023-01-10T11:52:47.905Z,65.01
2023-01-10T11:55:48.173Z,63.95
2023-01-10T11:58:44.009Z,63.70
2023-01-10T12:02:12.481Z,63.07
2023-01-10T12:05:09.861Z,62.90
2023-01-10T12:08:46.526Z,62.37
2023-01-10T12:12:07.987Z,62.26
2023-01-10T12:16:11.372Z,61.82
2023-01-10T12:18:57.332Z,61.13
2023-01-10T12:22:48.346Z,61.33
2023-01-10T12:26:12.161Z,61.84
2023-01-10T12:29:39.080Z,61.85
2023-01-10T12:32:37.042Z,62.07
2023-01-10T12:35:27.156Z,61.96
2023-01-10T12:38:46.304Z,62.16
2023-01-10T12:43:07.948Z,62.27
2023-01-10T12:46:21.841Z,62.45
2023-01-10T12:49:47.286Z,62.40
2023-01-10T12:53:09.438Z,62.14
2023-01-10T12:55:45.052Z,62.16
2023-01-10T12:58:46.114Z,62.05
2023-01-10T13:01:35.192Z,61.53
2023-01-10T13:04:29.839Z,61.26
2023-01-10T13:07:46.464Z,60.72
2023-01-10T13:10:36.109Z,60.64
2023-01-10T13:14:03.424Z,60.64
2023-01-10T13:16:50.587Z,60.35
2023-01-10T13:19:30.166Z,59.91
2023-01-10T13:22:29.952Z,60.07
2023-01-10T13:25:00.807Z,60.16
2023-01-10T13:28:05.662Z,59.56
2023-01-10T13:30:45.364Z,58.25
2023-01-10T13:34:09.186Z,59.58
2023-01-10T13:37:27.117Z,61.26
2023-01-10T13:40:10.038Z,61.19
2023-01-10T13:43:41.704Z,67.72
2023-01-10T13:46:57.656Z,69.22
2023-01-10T13:50:18.903Z,67.51
2023-01-10T13:53:43.401Z,66.32
2023-01-10T13:56:43.105Z,65.23
2023-01-10T14:00:38.643Z,64.43
2023-01-10T14:03:38.849Z,63.43
2023-01-10T14:06:44.945Z,63.33
2023-01-10T14:09:45.313Z,62.97
2023-01-10T14:13:15.891Z,62.48
2023-01-10T14:16:01.893Z,61.72
2023-01-10T14:18:42.635Z,61.34
2023-01-10T14:21:24.941Z,61.21
2023-01-10T14:24:54.781Z,60.80
2023-01-10T14:28:05.748Z,60.71
2023-01-10T14:31:52.957Z,60.77
2023-01-10T14:34:39.367Z,60.96
2023-01-10T14:37:53.718Z,60.96
2023-01-10T14:40:43.620Z,60.91
2023-01-10T14:43:27.030Z,60.73
2023-01-10T14:46:21.158Z,60.88
2023-01-10T14:49:52.616Z,60.97
2023-01-10T14:52:25.752Z,61.07
2023-01-10T14:55:21.488Z,61.17
2023-01-10T14:58:02.572Z,61.23
2023-01-10T15:01:03.051Z,61.68
2023-01-10T15:03:38.558Z,62.12
2023-01-10T15:06:13.569Z,61.83
2023-01-10T15:08:47.713Z,62.22
2023-01-10T15:11:31.637Z,62.52
2023-01-10T15:14:26.342Z,62.52
2023-01-10T15:17:06.496Z,62.77
2023-01-10T15:19:42.065Z,62.68
2023-01-10T15:22:57.163Z,62.68
2023-01-10T15:26:21.005Z,62.64
2023-01-10T15:29:34.076Z,62.71
2023-01-10T15:32:51.406Z,62.80
2023-01-10T15:35:49.381Z,63.20
2023-01-10T15:38:37.618Z,63.01
2023-01-10T15:41:43.782Z,62.89
2023-01-10T15:44:57.019Z,62.78
2023-01-10T15:47:41.426Z,63.28
2023-01-10T15:50:34.168Z,63.87
2023-01-10T15:53:27.504Z,63.94
2023-01-10T15:56:56.572Z,64.47
2023-01-10T15:59:46.968Z,64.44
2023-01-10T16:02:56.550Z,64.32
2023-01-10T16:06:13.256Z,63.86
2023-01-10T16:09:03.463Z,64.03
2023-01-10T16:12:23.405Z,64.02
2023-01-10T16:15:15.132Z,63.90
2023-01-10T16:18:29.271Z,63.57
2023-01-10T16:21:24.067Z,63.40
2023-01-10T16:24:43.768Z,63.56
2023-01-10T16:27:57.729Z,63.47
2023-01-10T16:30:47.064Z,63.29
2023-01-10T16:33:27.798Z,63.40
2023-01-10T16:36:02.766Z,63.50
2023-01-10T16:38:34.315Z,63.91
2023-01-10T16:41:44.880Z,63.70
2023-01-10T16:44:19.343Z,63.08
2023-01-10T16:46:53.681Z,63.34
2023-01-10T16:49:26.603Z,63.67
2023-01-10T16:51:58.266Z,64.08
2023-01-10T16:54:49.391Z,64.00
2023-01-10T16:57:23.056Z,63.32
2023-01-10T16:59:54.434Z,63.58
2023-01-10T17:02:25.047Z,63.62
2023-01-10T17:05:04.459Z,63.96
2023-01-10T17:07:36.651Z,64.02
2023-01-10T17:10:11.090Z,63.86
2023-01-10T17:12:45.939Z,64.04
2023-01-10T17:15:19.416Z,64.25
2023-01-10T17:17:52.585Z,63.99
2023-01-10T17:20:25.777Z,63.99
2023-01-10T17:23:01.482Z,63.41
2023-01-10T17:25:50.997Z,62.90
2023-01-10T17:28:28.807Z,62.74
2023-01-10T17:30:57.897Z,63.06
2023-01-10T17:33:35.291Z,62.86
2023-01-10T17:36:09.596Z,63.06
2023-01-10T17:39:01.125Z,63.08
2023-01-10T17:41:38.614Z,62.85
2023-01-10T17:44:07.192Z,62.83
2023-01-10T17:46:40.277Z,62.87
2023-01-10T17:49:19.733Z,62.84
2023-01-10T17:51:59.973Z,62.86
2023-01-10T17:54:29.371Z,63.14
2023-01-10T17:57:12.252Z,63.08
2023-01-10T18:00:04.491Z,63.13
2023-01-10T18:02:39.725Z,62.89
2023-01-10T18:05:11.727Z,62.89
2023-01-10T18:07:49.434Z,62.34
2023-01-10T18:10:28.245Z,62.06
2023-01-10T18:13:02.521Z,62.04
2023-01-10T18:15:31.970Z,61.91
2023-01-10T18:18:14.684Z,61.77
2023-01-10T18:20:44.391Z,61.89
2023-01-10T18:23:23.104Z,61.89
2023-01-10T18:26:08.633Z,61.75
2023-01-10T18:29:02.861Z,61.71
2023-01-10T18:31:37.802Z,61.90
2023-01-10T18:34:27.611Z,62.09
2023-01-10T18:37:21.478Z,61.66
2023-01-10T18:39:50.344Z,61.25
2023-01-10T18:42:34.799Z,61.04
2023-01-10T18:45:05.616Z,61.27
2023-01-10T18:47:37.599Z,61.56
2023-01-10T18:50:28.983Z,61.61
2023-01-10T18:53:20.860Z,62.63
2023-01-10T18:56:01.399Z,62.72
2023-01-10T18:58:38.363Z,62.85
2023-01-10T19:01:12.131Z,62.94
2023-01-10T19:03:44.052Z,62.84
2023-01-10T19:06:44.293Z,62.88
2023-01-10T19:09:18.367Z,62.70
2023-01-10T19:12:09.039Z,62.36
2023-01-10T19:14:54.005Z,62.32
2023-01-10T19:17:29.470Z,62.29
2023-01-10T19:20:18.876Z,62.30
2023-01-10T19:23:09.912Z,61.83
2023-01-10T19:25:47.703Z,61.93
2023-01-10T19:28:20.600Z,61.92
2023-01-10T19:31:04.636Z,61.21
2023-01-10T19:33:47.830Z,61.35
2023-01-10T19:36:29.625Z,61.89
2023-01-10T19:39:07.519Z,62.12
2023-01-10T19:41:48.337Z,62.05
2023-01-10T19:44:24.673Z,62.27
2023-01-10T19:47:16.076Z,62.35
2023-01-10T19:50:14.996Z,62.79
2023-01-10T19:52:52.798Z,62.86
2023-01-10T19:55:29.537Z,62.72
2023-01-10T19:58:22.504Z,63.29
2023-01-10T20:00:51.379Z,63.37
2023-01-10T20:03:22.734Z,63.63
2023-01-10T20:06:18.046Z,63.30
2023-01-10T20:09:25.739Z,63.16
2023-01-10T20:12:02.440Z,63.47
2023-01-10T20:14:51.785Z,63.64
2023-01-10T20:17:45.445Z,63.75
2023-01-10T20:20:31.744Z,63.31
2023-01-10T20:23:22.781Z,63.05
2023-01-10T20:26:31.268Z,62.88
2023-01-10T20:29:10.422Z,62.52
2023-01-10T20:32:03.354Z,62.87
2023-01-10T20:34:47.449Z,62.97
2023-01-10T20:37:27.816Z,62.67
2023-01-10T20:40:26.425Z,62.40
2023-01-10T20:43:06.604Z,62.27
2023-01-10T20:46:00.420Z,61.96
2023-01-10T20:49:10.639Z,61.41
2023-01-10T20:52:05.125Z,61.18
2023-01-10T20:54:54.592Z,61.06
2023-01-10T20:57:30.960Z,60.74
2023-01-10T21:00:08.450Z,60.44
2023-01-10T21:02:59.771Z,60.65
2023-01-10T21:05:36.340Z,60.82
2023-01-10T21:08:31.847Z,61.06
2023-01-10T21:11:21.436Z,61.05
2023-01-10T21:14:13.247Z,61.28
2023-01-10T21:16:49.310Z,61.28
2023-01-10T21:19:32.428Z,61.26
2023-01-10T21:22:03.674Z,61.12
2023-01-10T21:24:34.722Z,61.20
2023-01-10T21:27:18.696Z,60.87
2023-01-10T21:30:07.578Z,60.87
2023-01-10T21:33:02.651Z,60.66
2023-01-10T21:35:33.962Z,60.94
2023-01-10T21:38:13.296Z,61.25
2023-01-10T21:40:44.341Z,60.97
2023-01-10T21:43:17.921Z,61.20
2023-01-10T21:46:26.750Z,61.25
2023-01-10T21:49:13.981Z,61.32
2023-01-10T21:51:45.272Z,61.44
2023-01-10T21:54:25.328Z,61.58
2023-01-10T21:56:56.876Z,61.72
2023-01-10T21:59:37.723Z,61.84
2023-01-10T22:02:15.916Z,62.13
2023-01-10T22:05:10.399Z,62.24
2023-01-10T22:08:15.537Z,62.21
2023-01-10T22:11:05.829Z,62.56
2023-01-10T22:13:39.328Z,62.41
2023-01-10T22:16:30.265Z,62.14
2023-01-10T22:19:02.038Z,61.62
2023-01-10T22:21:47.268Z,61.49
2023-01-10T22:24:18.739Z,61.43
2023-01-10T22:26:54.563Z,61.42
2023-01-10T22:29:38.612Z,61.48
2023-01-10T22:32:25.219Z,61.60
2023-01-10T22:34:58.327Z,61.15
2023-01-10T22:37:29.170Z,60.89
2023-01-10T22:40:05.297Z,60.75
2023-01-10T22:42:39.818Z,60.75
2023-01-10T22:45:31.792Z,60.75
2023-01-10T22:48:31.718Z,61.06
2023-01-10T22:51:07.724Z,61.23
2023-01-10T22:53:59.554Z,61.62
2023-01-10T22:56:39.024Z,61.88
2023-01-10T22:59:15.288Z,61.85
2023-01-10T23:01:48.942Z,62.01
2023-01-10T23:04:22.337Z,62.12
2023-01-10T23:07:01.552Z,61.65
2023-01-10T23:09:32.722Z,61.53
2023-01-10T23:12:27.108Z,60.71
2023-01-10T23:15:32.048Z,60.98
2023-01-10T23:18:18.139Z,61.25
2023-01-10T23:21:20.431Z,61.28
2023-01-10T23:24:53.500Z,60.72
2023-01-10T23:27:38.976Z,60.41
2023-01-10T23:30:22.491Z,59.96
2023-01-10T23:33:17.105Z,59.62
2023-01-10T23:35:59.107Z,58.16
2023-01-10T23:38:33.123Z,58.83
2023-01-10T23:41:04.255Z,60.45
2023-01-10T23:43:42.689Z,61.62
2023-01-10T23:46:48.967Z,62.61
2023-01-10T23:49:27.242Z,68.77
2023-01-10T23:52:17.070Z,68.66
2023-01-10T23:55:01.114Z,67.17
2023-01-10T23:57:45.658Z,66.05
